Winfield, Texas
Current Conditions -  °F | °C
As of 8:55 PM on Thursday 27 Nov 2014 (Local Time) from KOSA Reporting Station
Clear Clear  
Wind Chill:   Ceiling: Unl
Heat Index:   Visibility: 10mi
Dew Point: -2°   Wind: 3mph
Humidity: 58%   Direction: 110°ESE
Pressure: 30.43"   Gusts: NA
Location:  33.17°N, 95.11°W
Report Text: KOSA 280255Z AUTO 11003KT 10SM CLR 06/M01 A3043 RMK AO1 T00621015
Loading
Personal Weather Stations






























Interactive Weather Map New forecast layout! Learn more

10-Day Weather Forecast

Advertisements
Track Severe Weather on mobile